AirNav   Phillips 66 Aviation Fuel
 
 1268 users online  

TA19 Post Oak Airfield
Weatherford, Texas, USA

GOING TO WEATHERFORD?


FAA INFORMATION EFFECTIVE 14 SEPTEMBER 2017

Location

FAA Identifier: TA19
Lat/Long: 32-40-28.4720N / 097-47-01.1110W
32-40.474533N / 097-47.018517W
32.6745756 / -97.7836419
(estimated)
Elevation: 1020 ft. / 311 m (estimated)
Variation: 07E (1985)
From city: 5 miles S of WEATHERFORD, TX
Time zone: UTC -5 (UTC -6 during Standard Time)
Zip code: 76087

Airport Operations

Airport use: Private use. Permission required prior to landing
Activation date: 11/1988
Control tower: no
ARTCC: FORT WORTH CENTER
FSS: FORT WORTH FLIGHT SERVICE STATION
Attendance: IREG
Wind indicator: yes
Segmented circle: yes

Airport Communications

WX AWOS-3 at GDJ (14 nm S): 118.925 (817-573-7514)
WX ASOS at MWL (15 nm NW): 135.075 (940-325-2457)

Nearby radio navigation aids

VOR radial/distance  VOR name  Freq  Var
MQPr097/11.2MILLSAP VORTAC117.7009E
JENr003/31.3GLEN ROSE VORTAC115.0006E
FUZr241/33.1RANGER VORTAC115.7006E
TTTr247/39.3MAVERICK VOR/DME113.1006E

Airport Services

Runway Information

Runway 18/36

Dimensions: 2350 x 30 ft. / 716 x 9 m
Surface: gravel, in fair condition
HAS SOFT SPOTS WHEN WET.
Runway edge markings: 18/36 HAS WHITE REFLECTORS WITH WHITE ACFT TIRES ALONG BOTH SIDES WITH A SINGLE RED ON EITHER SIDE AT RY 18 & A SINGLE BLUE ON EITHER SIDE AT RY 36.
Operational restrictions: UPSLOPE SOUTH 1/2 OF RY 18.
RUNWAY 18  RUNWAY 36
Traffic pattern: leftright
Obstructions: 15 ft. trees, 50 ft. right of centerline4 ft. brush, 50 ft. left of centerline

Airport Ownership and Management from official FAA records

Ownership: Privately-owned
Owner: JOHN G. GOOD
1501A LOWER TARRANT
GRAND PRAIRIE, TX 75050
Phone 214-606-0378
WORK PHONE AT FT WORTH POLICE HELICOPTERS 817-870-8311.
Manager: JOHN G. GOOD
1501 A LOWER TARRANT
WEATHERFORD, TX 76087
Phone 214-606-0378

Airport Operational Statistics

Aircraft based on the field: 1
Single engine airplanes: 1
    
Aircraft operations: 150/year *
67% local general aviation
33% transient general aviation
* for 12-month period ending 08 February 1995

Instrument Procedures

There are no published instrument procedures at TA19.

Some nearby airports with instrument procedures:

KWEA - Parker County Airport (7 nm NE)
50F - Bourland Field Airport (11 nm SE)
KGDJ - Granbury Regional Airport (14 nm S)
KMWL - Mineral Wells Airport (15 nm NW)
KNFW - Fort Worth Naval Air Station JRB (Carswell Field) Airport (18 nm E)
 
Loc | Ops | Rwys | IFR | FBO | Links
Com | Nav | Svcs | Stats | Notes


 
Area around TA19 (Post Oak Airfield)
 
Road maps at: MapQuest Bing Google
 
Aerial photo
No photo
 
Sectional chart

 
Airport distance calculator
Flying to Post Oak Airfield? Find the distance to fly.

From to TA19

Sunrise and sunset
Times for 21-Sep-2017
 Local
(UTC-5)
 Zulu
(UTC)
Morning civil twilight06:5511:55
Sunrise07:2012:20
Sunset19:2900:29
Evening civil twilight19:5300:53

Current date and time
Zulu (UTC)  21-Sep-2017 13:37:39
Local (UTC-5)  21-Sep-2017 08:37:39
 
METAR
KGDJ 
14nm S 
AWOS-3 118.925 817-573-7514
211315Z AUTO 16009KT 10SM OVC020 27/22 A2995 RMK AO2 T02650220
KMWL 
16nm NW 
211253Z AUTO 15008KT 10SM CLR 25/22 A2992 RMK AO2 SLP116 T02500217
KNFW 
18nm E 
211252Z 16008KT 10SM FEW019 SCT250 26/22 A2994 RMK AO2 SLP121 T02610222 $
KFTW 
23nm NE 
211253Z 17010KT 10SM FEW019 27/23 A2993 RMK AO2 SLP125 T02670233
KFWS 
25nm E 
211248Z 16007KT 10SM CLR 25/22 A2995
KCPT 
26nm SE 
211315Z AUTO 19009KT 8SM FEW020 25/24 A2997 RMK AO2
TAF
KNFW 
18nm E 
2107/2207 17012G18KT 9999 SCT030 BKN120 QNH2972INS BECMG 2115/2117 16012G18KT 9999 FEW040 FEW150 QNH2982INS BECMG 2203/2205 15010G15KT 9999 SKC QNH2978INS AUTOMATED SENSOR METWATCH 2107 TIL 2111 T24/2111Z T36/2123Z FN00192
NOTAMs
Click for the latest NOTAMs
NOTAMs are issued by the DoD/FAA and will open in a separate window not controlled by AirNav.

 

 
 

Would you like to see your business listed on this page?

 If your business provides an interesting product or service to pilots, flight crews, aircraft, or users of the Post Oak Airfield, you should consider listing it here.  To start the listing process, click on the button below
 
Add a business
 

Other Pages about Post Oak Airfield

Update a link
 
Copyright © AirNav, LLC. All rights reserved. Privacy Policy  Contact